sensor_id;sensor_type;location;lat;lon;timestamp;temperature;humidity
15113;DHT22;7657;50.140;7.076;2022-12-07T00:00:08;4.00;99.90
15113;DHT22;7657;50.140;7.076;2022-12-07T00:02:35;3.90;99.90
15113;DHT22;7657;50.140;7.076;2022-12-07T00:05:03;3.90;99.90
15113;DHT22;7657;50.140;7.076;2022-12-07T00:07:30;3.80;99.90
15113;DHT22;7657;50.140;7.076;2022-12-07T00:09:57;3.80;99.90
15113;DHT22;7657;50.140;7.076;2022-12-07T00:12:23;3.70;99.90
15113;DHT22;7657;50.140;7.076;2022-12-07T00:14:52;3.80;99.90
15113;DHT22;7657;50.140;7.076;2022-12-07T00:17:18;3.80;99.90
15113;DHT22;7657;50.140;7.076;2022-12-07T00:19:45;3.80;99.90
15113;DHT22;7657;50.140;7.076;2022-12-07T00:22:12;3.90;99.90
15113;DHT22;7657;50.140;7.076;2022-12-07T00:24:39;3.80;99.90
15113;DHT22;7657;50.140;7.076;2022-12-07T00:27:06;3.70;99.90
15113;DHT22;7657;50.140;7.076;2022-12-07T00:29:33;3.50;99.90
15113;DHT22;7657;50.140;7.076;2022-12-07T00:32:01;3.30;99.90
15113;DHT22;7657;50.140;7.076;2022-12-07T00:34:28;3.20;99.90
15113;DHT22;7657;50.140;7.076;2022-12-07T00:36:55;3.20;99.90
15113;DHT22;7657;50.140;7.076;2022-12-07T00:39:22;3.20;99.90
15113;DHT22;7657;50.140;7.076;2022-12-07T00:41:48;3.30;99.90
15113;DHT22;7657;50.140;7.076;2022-12-07T00:44:15;3.50;99.90
15113;DHT22;7657;50.140;7.076;2022-12-07T00:46:42;3.50;99.90
15113;DHT22;7657;50.140;7.076;2022-12-07T00:49:12;3.50;99.90
15113;DHT22;7657;50.140;7.076;2022-12-07T00:51:39;3.50;99.90
15113;DHT22;7657;50.140;7.076;2022-12-07T00:54:06;3.60;99.90
15113;DHT22;7657;50.140;7.076;2022-12-07T00:56:33;3.60;99.90
15113;DHT22;7657;50.140;7.076;2022-12-07T00:59:01;3.60;99.90
15113;DHT22;7657;50.140;7.076;2022-12-07T01:01:30;3.60;99.90
15113;DHT22;7657;50.140;7.076;2022-12-07T01:03:57;3.60;99.90
15113;DHT22;7657;50.140;7.076;2022-12-07T01:06:28;3.60;99.90
15113;DHT22;7657;50.140;7.076;2022-12-07T01:08:55;3.60;99.90
15113;DHT22;7657;50.140;7.076;2022-12-07T01:11:24;3.50;99.90
15113;DHT22;7657;50.140;7.076;2022-12-07T01:13:52;3.50;99.90
15113;DHT22;7657;50.140;7.076;2022-12-07T01:16:20;3.40;99.90
15113;DHT22;7657;50.140;7.076;2022-12-07T01:18:51;3.50;99.90
15113;DHT22;7657;50.140;7.076;2022-12-07T01:21:20;3.40;99.90
15113;DHT22;7657;50.140;7.076;2022-12-07T01:23:49;3.20;99.90
15113;DHT22;7657;50.140;7.076;2022-12-07T01:26:17;3.20;99.90
15113;DHT22;7657;50.140;7.076;2022-12-07T01:28:44;3.10;99.90
15113;DHT22;7657;50.140;7.076;2022-12-07T01:31:13;3.10;99.90
15113;DHT22;7657;50.140;7.076;2022-12-07T01:33:42;3.10;99.90
15113;DHT22;7657;50.140;7.076;2022-12-07T01:36:14;3.10;99.90
15113;DHT22;7657;50.140;7.076;2022-12-07T01:38:42;3.00;99.90
15113;DHT22;7657;50.140;7.076;2022-12-07T01:41:10;2.90;99.90
15113;DHT22;7657;50.140;7.076;2022-12-07T01:44:10;2.80;99.90
15113;DHT22;7657;50.140;7.076;2022-12-07T01:46:38;2.80;99.90
15113;DHT22;7657;50.140;7.076;2022-12-07T01:49:08;2.80;99.90
15113;DHT22;7657;50.140;7.076;2022-12-07T01:51:37;2.80;99.90
15113;DHT22;7657;50.140;7.076;2022-12-07T01:54:06;2.90;99.90
15113;DHT22;7657;50.140;7.076;2022-12-07T01:56:36;3.00;99.90
15113;DHT22;7657;50.140;7.076;2022-12-07T01:59:05;3.00;99.90
15113;DHT22;7657;50.140;7.076;2022-12-07T02:01:32;3.00;99.90
15113;DHT22;7657;50.140;7.076;2022-12-07T02:03:58;3.00;99.90
15113;DHT22;7657;50.140;7.076;2022-12-07T02:06:26;3.10;99.90
15113;DHT22;7657;50.140;7.076;2022-12-07T02:08:53;3.00;99.90
15113;DHT22;7657;50.140;7.076;2022-12-07T02:11:20;3.00;99.90
15113;DHT22;7657;50.140;7.076;2022-12-07T02:13:49;3.00;99.90
15113;DHT22;7657;50.140;7.076;2022-12-07T02:16:25;3.00;99.90
15113;DHT22;7657;50.140;7.076;2022-12-07T02:19:03;3.00;99.90
15113;DHT22;7657;50.140;7.076;2022-12-07T02:21:41;3.00;99.90
15113;DHT22;7657;50.140;7.076;2022-12-07T02:24:25;3.00;99.90
15113;DHT22;7657;50.140;7.076;2022-12-07T02:27:32;2.90;99.90
15113;DHT22;7657;50.140;7.076;2022-12-07T02:30:04;2.90;99.90
15113;DHT22;7657;50.140;7.076;2022-12-07T02:32:40;3.00;99.90
15113;DHT22;7657;50.140;7.076;2022-12-07T02:35:11;3.00;99.90
15113;DHT22;7657;50.140;7.076;2022-12-07T02:37:42;3.00;99.90
15113;DHT22;7657;50.140;7.076;2022-12-07T02:40:14;3.00;99.90
15113;DHT22;7657;50.140;7.076;2022-12-07T02:42:46;3.00;99.90
15113;DHT22;7657;50.140;7.076;2022-12-07T02:45:18;3.00;99.90
15113;DHT22;7657;50.140;7.076;2022-12-07T02:47:50;3.10;99.90
15113;DHT22;7657;50.140;7.076;2022-12-07T02:50:19;3.00;99.90
15113;DHT22;7657;50.140;7.076;2022-12-07T02:52:46;3.10;99.90
15113;DHT22;7657;50.140;7.076;2022-12-07T02:55:16;3.10;99.90
15113;DHT22;7657;50.140;7.076;2022-12-07T02:57:54;3.10;99.90
15113;DHT22;7657;50.140;7.076;2022-12-07T03:00:25;3.00;99.90
15113;DHT22;7657;50.140;7.076;2022-12-07T03:02:55;3.00;99.90
15113;DHT22;7657;50.140;7.076;2022-12-07T03:05:44;2.90;99.90
15113;DHT22;7657;50.140;7.076;2022-12-07T03:08:23;2.90;99.90
15113;DHT22;7657;50.140;7.076;2022-12-07T03:10:56;2.90;99.90
15113;DHT22;7657;50.140;7.076;2022-12-07T03:13:29;2.90;99.90
15113;DHT22;7657;50.140;7.076;2022-12-07T03:16:02;2.80;99.90
15113;DHT22;7657;50.140;7.076;2022-12-07T03:18:36;2.80;99.90
15113;DHT22;7657;50.140;7.076;2022-12-07T03:21:08;2.80;99.90
15113;DHT22;7657;50.140;7.076;2022-12-07T03:23:37;2.80;99.90
15113;DHT22;7657;50.140;7.076;2022-12-07T03:26:09;2.90;99.90
15113;DHT22;7657;50.140;7.076;2022-12-07T03:28:41;2.90;99.90
15113;DHT22;7657;50.140;7.076;2022-12-07T03:31:12;2.90;99.90
15113;DHT22;7657;50.140;7.076;2022-12-07T03:33:46;3.00;99.90
15113;DHT22;7657;50.140;7.076;2022-12-07T03:36:21;3.00;99.90
15113;DHT22;7657;50.140;7.076;2022-12-07T03:38:53;3.10;99.90
15113;DHT22;7657;50.140;7.076;2022-12-07T03:41:24;3.10;99.90
15113;DHT22;7657;50.140;7.076;2022-12-07T03:43:54;3.20;99.90
15113;DHT22;7657;50.140;7.076;2022-12-07T03:46:32;3.20;99.90
15113;DHT22;7657;50.140;7.076;2022-12-07T03:49:06;3.30;99.90
15113;DHT22;7657;50.140;7.076;2022-12-07T03:51:40;3.40;99.90
15113;DHT22;7657;50.140;7.076;2022-12-07T03:54:13;3.40;99.90
15113;DHT22;7657;50.140;7.076;2022-12-07T03:56:42;3.40;99.90
15113;DHT22;7657;50.140;7.076;2022-12-07T03:59:11;3.40;99.90
15113;DHT22;7657;50.140;7.076;2022-12-07T04:01:43;3.40;99.90
15113;DHT22;7657;50.140;7.076;2022-12-07T04:04:10;3.40;99.90
15113;DHT22;7657;50.140;7.076;2022-12-07T04:06:37;3.40;99.90
15113;DHT22;7657;50.140;7.076;2022-12-07T04:09:04;3.50;99.90
15113;DHT22;7657;50.140;7.076;2022-12-07T04:11:31;3.50;99.90
15113;DHT22;7657;50.140;7.076;2022-12-07T04:13:58;3.40;99.90
15113;DHT22;7657;50.140;7.076;2022-12-07T04:16:43;3.40;99.90
15113;DHT22;7657;50.140;7.076;2022-12-07T04:19:10;3.50;99.90
15113;DHT22;7657;50.140;7.076;2022-12-07T04:21:38;3.50;99.90
15113;DHT22;7657;50.140;7.076;2022-12-07T04:24:05;3.40;99.90
15113;DHT22;7657;50.140;7.076;2022-12-07T04:26:32;3.40;99.90
15113;DHT22;7657;50.140;7.076;2022-12-07T04:28:59;3.40;99.90
15113;DHT22;7657;50.140;7.076;2022-12-07T04:31:26;3.40;99.90
15113;DHT22;7657;50.140;7.076;2022-12-07T04:33:54;3.30;99.90
15113;DHT22;7657;50.140;7.076;2022-12-07T04:36:21;3.30;99.90
15113;DHT22;7657;50.140;7.076;2022-12-07T04:38:48;3.30;99.90
15113;DHT22;7657;50.140;7.076;2022-12-07T04:41:15;3.40;99.90
15113;DHT22;7657;50.140;7.076;2022-12-07T04:43:42;3.40;99.90
15113;DHT22;7657;50.140;7.076;2022-12-07T04:46:09;3.40;99.90
15113;DHT22;7657;50.140;7.076;2022-12-07T04:48:36;3.40;99.90
15113;DHT22;7657;50.140;7.076;2022-12-07T04:51:05;3.50;99.90
15113;DHT22;7657;50.140;7.076;2022-12-07T04:53:32;3.50;99.90
15113;DHT22;7657;50.140;7.076;2022-12-07T04:55:58;3.50;99.90
15113;DHT22;7657;50.140;7.076;2022-12-07T04:58:26;3.50;99.90
15113;DHT22;7657;50.140;7.076;2022-12-07T05:00:54;3.60;99.90
15113;DHT22;7657;50.140;7.076;2022-12-07T05:03:21;3.60;99.90
15113;DHT22;7657;50.140;7.076;2022-12-07T05:05:48;3.50;99.90
15113;DHT22;7657;50.140;7.076;2022-12-07T05:08:16;3.40;99.90
15113;DHT22;7657;50.140;7.076;2022-12-07T05:10:43;3.50;99.90
15113;DHT22;7657;50.140;7.076;2022-12-07T05:13:10;3.40;99.90
15113;DHT22;7657;50.140;7.076;2022-12-07T05:15:37;3.40;99.90
15113;DHT22;7657;50.140;7.076;2022-12-07T05:18:04;3.50;99.90
15113;DHT22;7657;50.140;7.076;2022-12-07T05:20:30;3.50;99.90
15113;DHT22;7657;50.140;7.076;2022-12-07T05:22:57;3.50;99.90
15113;DHT22;7657;50.140;7.076;2022-12-07T05:25:26;3.50;99.90
15113;DHT22;7657;50.140;7.076;2022-12-07T05:27:54;3.40;99.90
15113;DHT22;7657;50.140;7.076;2022-12-07T05:30:22;3.50;99.90
15113;DHT22;7657;50.140;7.076;2022-12-07T05:32:49;3.50;99.90
15113;DHT22;7657;50.140;7.076;2022-12-07T05:35:16;3.50;99.90
15113;DHT22;7657;50.140;7.076;2022-12-07T05:37:43;3.50;99.90
15113;DHT22;7657;50.140;7.076;2022-12-07T05:40:12;3.50;99.90
15113;DHT22;7657;50.140;7.076;2022-12-07T05:42:40;3.50;99.90
15113;DHT22;7657;50.140;7.076;2022-12-07T05:45:09;3.40;99.90
15113;DHT22;7657;50.140;7.076;2022-12-07T05:47:36;3.50;99.90
15113;DHT22;7657;50.140;7.076;2022-12-07T05:50:05;3.70;99.90
15113;DHT22;7657;50.140;7.076;2022-12-07T05:52:32;3.70;99.90
15113;DHT22;7657;50.140;7.076;2022-12-07T05:54:59;3.70;99.90
15113;DHT22;7657;50.140;7.076;2022-12-07T05:57:26;3.80;99.90
15113;DHT22;7657;50.140;7.076;2022-12-07T05:59:54;3.70;99.90
15113;DHT22;7657;50.140;7.076;2022-12-07T06:02:20;3.70;99.90
15113;DHT22;7657;50.140;7.076;2022-12-07T06:04:47;3.70;99.90
15113;DHT22;7657;50.140;7.076;2022-12-07T06:07:15;3.70;99.90
15113;DHT22;7657;50.140;7.076;2022-12-07T06:09:42;3.70;99.90
15113;DHT22;7657;50.140;7.076;2022-12-07T06:12:10;3.70;99.90
15113;DHT22;7657;50.140;7.076;2022-12-07T06:15:05;3.70;99.90
15113;DHT22;7657;50.140;7.076;2022-12-07T06:17:32;3.80;99.90
15113;DHT22;7657;50.140;7.076;2022-12-07T06:19:59;3.80;99.90
15113;DHT22;7657;50.140;7.076;2022-12-07T06:22:26;3.70;99.90
15113;DHT22;7657;50.140;7.076;2022-12-07T06:24:53;3.70;99.90
15113;DHT22;7657;50.140;7.076;2022-12-07T06:27:20;3.80;99.90
15113;DHT22;7657;50.140;7.076;2022-12-07T06:29:47;3.80;99.90
15113;DHT22;7657;50.140;7.076;2022-12-07T06:32:15;3.80;99.90
15113;DHT22;7657;50.140;7.076;2022-12-07T06:34:42;3.70;99.90
15113;DHT22;7657;50.140;7.076;2022-12-07T06:37:09;3.80;99.90
15113;DHT22;7657;50.140;7.076;2022-12-07T06:39:36;3.80;99.90
15113;DHT22;7657;50.140;7.076;2022-12-07T06:42:04;3.60;99.90
15113;DHT22;7657;50.140;7.076;2022-12-07T06:44:30;3.50;99.90
15113;DHT22;7657;50.140;7.076;2022-12-07T06:46:58;3.40;99.90
15113;DHT22;7657;50.140;7.076;2022-12-07T06:49:26;3.40;99.90
15113;DHT22;7657;50.140;7.076;2022-12-07T06:51:53;3.40;99.90
15113;DHT22;7657;50.140;7.076;2022-12-07T06:54:20;3.30;99.90
15113;DHT22;7657;50.140;7.076;2022-12-07T06:56:47;3.20;99.90
15113;DHT22;7657;50.140;7.076;2022-12-07T06:59:14;3.30;99.90
15113;DHT22;7657;50.140;7.076;2022-12-07T07:01:41;3.30;99.90
15113;DHT22;7657;50.140;7.076;2022-12-07T07:04:08;3.30;99.90
15113;DHT22;7657;50.140;7.076;2022-12-07T07:06:36;3.30;99.90
15113;DHT22;7657;50.140;7.076;2022-12-07T07:09:03;3.30;99.90
15113;DHT22;7657;50.140;7.076;2022-12-07T07:11:30;3.30;99.90
15113;DHT22;7657;50.140;7.076;2022-12-07T07:13:57;3.20;99.90
15113;DHT22;7657;50.140;7.076;2022-12-07T07:16:28;3.10;99.90
15113;DHT22;7657;50.140;7.076;2022-12-07T07:18:55;3.10;99.90
15113;DHT22;7657;50.140;7.076;2022-12-07T07:21:22;3.20;99.90
15113;DHT22;7657;50.140;7.076;2022-12-07T07:23:50;3.30;99.90
15113;DHT22;7657;50.140;7.076;2022-12-07T07:26:17;3.20;99.90
15113;DHT22;7657;50.140;7.076;2022-12-07T07:28:44;3.20;99.90
15113;DHT22;7657;50.140;7.076;2022-12-07T07:31:11;3.30;99.90
15113;DHT22;7657;50.140;7.076;2022-12-07T07:33:38;3.30;99.90
15113;DHT22;7657;50.140;7.076;2022-12-07T07:36:05;3.30;99.90
15113;DHT22;7657;50.140;7.076;2022-12-07T07:38:32;3.20;99.90
15113;DHT22;7657;50.140;7.076;2022-12-07T07:41:00;3.20;99.90
15113;DHT22;7657;50.140;7.076;2022-12-07T07:43:27;3.20;99.90
15113;DHT22;7657;50.140;7.076;2022-12-07T07:45:54;3.30;99.90
15113;DHT22;7657;50.140;7.076;2022-12-07T07:48:21;3.30;99.90
15113;DHT22;7657;50.140;7.076;2022-12-07T07:50:50;3.30;99.90
15113;DHT22;7657;50.140;7.076;2022-12-07T07:53:17;3.30;99.90
15113;DHT22;7657;50.140;7.076;2022-12-07T07:55:51;3.30;99.90
15113;DHT22;7657;50.140;7.076;2022-12-07T07:58:20;3.30;99.90
15113;DHT22;7657;50.140;7.076;2022-12-07T08:00:47;3.40;99.90
15113;DHT22;7657;50.140;7.076;2022-12-07T08:03:14;3.50;99.90
15113;DHT22;7657;50.140;7.076;2022-12-07T08:05:41;3.40;99.90
15113;DHT22;7657;50.140;7.076;2022-12-07T08:08:08;3.40;99.90
15113;DHT22;7657;50.140;7.076;2022-12-07T08:10:35;3.40;99.90
15113;DHT22;7657;50.140;7.076;2022-12-07T08:13:02;3.40;99.90
15113;DHT22;7657;50.140;7.076;2022-12-07T08:15:41;3.60;99.90
15113;DHT22;7657;50.140;7.076;2022-12-07T08:18:09;3.70;99.90
15113;DHT22;7657;50.140;7.076;2022-12-07T08:20:37;3.70;99.90
15113;DHT22;7657;50.140;7.076;2022-12-07T08:23:04;3.70;99.90
15113;DHT22;7657;50.140;7.076;2022-12-07T08:25:32;3.70;99.90
15113;DHT22;7657;50.140;7.076;2022-12-07T08:27:59;3.70;99.90
15113;DHT22;7657;50.140;7.076;2022-12-07T08:30:27;3.70;99.90
15113;DHT22;7657;50.140;7.076;2022-12-07T08:32:56;3.80;99.90
15113;DHT22;7657;50.140;7.076;2022-12-07T08:35:24;3.80;99.90
15113;DHT22;7657;50.140;7.076;2022-12-07T08:37:51;3.80;99.90
15113;DHT22;7657;50.140;7.076;2022-12-07T08:40:18;3.90;99.90
15113;DHT22;7657;50.140;7.076;2022-12-07T08:42:48;3.90;99.90
15113;DHT22;7657;50.140;7.076;2022-12-07T08:45:16;4.00;99.90
15113;DHT22;7657;50.140;7.076;2022-12-07T08:47:46;4.00;99.90
15113;DHT22;7657;50.140;7.076;2022-12-07T08:50:16;4.00;99.90
15113;DHT22;7657;50.140;7.076;2022-12-07T08:52:44;3.90;99.90
15113;DHT22;7657;50.140;7.076;2022-12-07T08:55:11;3.80;99.90
15113;DHT22;7657;50.140;7.076;2022-12-07T08:57:39;3.70;99.90
15113;DHT22;7657;50.140;7.076;2022-12-07T09:00:07;3.60;99.90
15113;DHT22;7657;50.140;7.076;2022-12-07T09:02:34;3.70;99.90
15113;DHT22;7657;50.140;7.076;2022-12-07T09:05:01;3.70;99.90
15113;DHT22;7657;50.140;7.076;2022-12-07T09:07:30;3.80;99.90
15113;DHT22;7657;50.140;7.076;2022-12-07T09:09:58;3.70;99.90
15113;DHT22;7657;50.140;7.076;2022-12-07T09:12:25;3.70;99.90
15113;DHT22;7657;50.140;7.076;2022-12-07T09:14:52;3.80;99.90
15113;DHT22;7657;50.140;7.076;2022-12-07T09:17:19;3.80;99.90
15113;DHT22;7657;50.140;7.076;2022-12-07T09:19:46;3.70;99.90
15113;DHT22;7657;50.140;7.076;2022-12-07T09:22:13;3.80;99.90
15113;DHT22;7657;50.140;7.076;2022-12-07T09:24:41;3.80;99.90
15113;DHT22;7657;50.140;7.076;2022-12-07T09:27:08;3.80;99.90
15113;DHT22;7657;50.140;7.076;2022-12-07T09:29:35;3.90;99.90
15113;DHT22;7657;50.140;7.076;2022-12-07T09:32:03;3.90;99.90
15113;DHT22;7657;50.140;7.076;2022-12-07T09:34:31;3.90;99.90
15113;DHT22;7657;50.140;7.076;2022-12-07T09:36:58;3.90;99.90
15113;DHT22;7657;50.140;7.076;2022-12-07T09:39:28;4.00;99.90
15113;DHT22;7657;50.140;7.076;2022-12-07T09:41:57;4.00;99.90
15113;DHT22;7657;50.140;7.076;2022-12-07T09:44:26;4.10;99.90
15113;DHT22;7657;50.140;7.076;2022-12-07T09:46:54;4.10;99.90
15113;DHT22;7657;50.140;7.076;2022-12-07T09:49:23;4.20;99.90
15113;DHT22;7657;50.140;7.076;2022-12-07T09:52:01;4.30;99.90
15113;DHT22;7657;50.140;7.076;2022-12-07T09:54:29;4.30;99.90
15113;DHT22;7657;50.140;7.076;2022-12-07T09:56:58;4.40;99.90
15113;DHT22;7657;50.140;7.076;2022-12-07T09:59:25;4.40;99.90
15113;DHT22;7657;50.140;7.076;2022-12-07T10:01:53;4.40;99.90
15113;DHT22;7657;50.140;7.076;2022-12-07T10:04:22;4.40;99.90
15113;DHT22;7657;50.140;7.076;2022-12-07T10:06:50;4.50;99.90
15113;DHT22;7657;50.140;7.076;2022-12-07T10:09:19;4.50;99.90
15113;DHT22;7657;50.140;7.076;2022-12-07T10:12:04;4.50;99.90
15113;DHT22;7657;50.140;7.076;2022-12-07T10:14:33;4.60;99.90
15113;DHT22;7657;50.140;7.076;2022-12-07T10:17:01;4.50;99.90
15113;DHT22;7657;50.140;7.076;2022-12-07T10:19:29;4.70;99.90
15113;DHT22;7657;50.140;7.076;2022-12-07T10:22:10;4.70;99.90
15113;DHT22;7657;50.140;7.076;2022-12-07T10:24:37;4.80;99.90
15113;DHT22;7657;50.140;7.076;2022-12-07T10:27:18;4.80;99.90
15113;DHT22;7657;50.140;7.076;2022-12-07T10:29:48;4.90;99.90
15113;DHT22;7657;50.140;7.076;2022-12-07T10:32:29;4.80;99.90
15113;DHT22;7657;50.140;7.076;2022-12-07T10:35:19;4.80;99.90
15113;DHT22;7657;50.140;7.076;2022-12-07T10:37:47;4.90;99.90
15113;DHT22;7657;50.140;7.076;2022-12-07T10:40:30;5.00;99.90
15113;DHT22;7657;50.140;7.076;2022-12-07T10:43:13;4.80;99.90
15113;DHT22;7657;50.140;7.076;2022-12-07T10:46:00;4.70;99.90
15113;DHT22;7657;50.140;7.076;2022-12-07T10:48:39;4.80;99.90
15113;DHT22;7657;50.140;7.076;2022-12-07T10:51:13;4.80;99.90
15113;DHT22;7657;50.140;7.076;2022-12-07T10:53:59;4.90;99.90
15113;DHT22;7657;50.140;7.076;2022-12-07T10:56:40;4.90;99.90
15113;DHT22;7657;50.140;7.076;2022-12-07T10:59:35;5.00;99.90
15113;DHT22;7657;50.140;7.076;2022-12-07T11:02:20;5.20;99.90
15113;DHT22;7657;50.140;7.076;2022-12-07T11:04:59;5.30;99.90
15113;DHT22;7657;50.140;7.076;2022-12-07T11:07:38;5.40;99.90
15113;DHT22;7657;50.140;7.076;2022-12-07T11:10:13;5.30;99.90
15113;DHT22;7657;50.140;7.076;2022-12-07T11:12:56;5.30;99.90
15113;DHT22;7657;50.140;7.076;2022-12-07T11:15:34;5.30;99.90
15113;DHT22;7657;50.140;7.076;2022-12-07T11:18:10;5.30;99.90
15113;DHT22;7657;50.140;7.076;2022-12-07T11:20:43;5.30;99.90
15113;DHT22;7657;50.140;7.076;2022-12-07T11:23:18;5.20;99.90
15113;DHT22;7657;50.140;7.076;2022-12-07T11:25:54;5.20;99.90
15113;DHT22;7657;50.140;7.076;2022-12-07T11:28:39;5.00;99.90
15113;DHT22;7657;50.140;7.076;2022-12-07T11:31:16;5.00;99.90
15113;DHT22;7657;50.140;7.076;2022-12-07T11:33:47;4.90;99.90
15113;DHT22;7657;50.140;7.076;2022-12-07T11:36:31;5.00;99.90
15113;DHT22;7657;50.140;7.076;2022-12-07T11:39:02;4.90;99.90
15113;DHT22;7657;50.140;7.076;2022-12-07T11:41:33;5.00;99.90
15113;DHT22;7657;50.140;7.076;2022-12-07T11:44:06;5.00;99.90
15113;DHT22;7657;50.140;7.076;2022-12-07T11:46:45;5.00;99.90
15113;DHT22;7657;50.140;7.076;2022-12-07T11:49:19;5.10;99.90
15113;DHT22;7657;50.140;7.076;2022-12-07T11:51:50;5.10;99.90
15113;DHT22;7657;50.140;7.076;2022-12-07T11:54:21;5.10;99.90
15113;DHT22;7657;50.140;7.076;2022-12-07T11:56:51;5.30;99.90
15113;DHT22;7657;50.140;7.076;2022-12-07T11:59:25;5.50;99.90
15113;DHT22;7657;50.140;7.076;2022-12-07T12:01:58;5.60;99.90
15113;DHT22;7657;50.140;7.076;2022-12-07T12:04:33;5.60;99.90
15113;DHT22;7657;50.140;7.076;2022-12-07T12:07:00;5.80;99.90
15113;DHT22;7657;50.140;7.076;2022-12-07T12:09:30;5.80;99.90
15113;DHT22;7657;50.140;7.076;2022-12-07T12:12:17;5.90;99.90
15113;DHT22;7657;50.140;7.076;2022-12-07T12:14:56;6.00;99.90
15113;DHT22;7657;50.140;7.076;2022-12-07T12:20:25;5.80;99.90
15113;DHT22;7657;50.140;7.076;2022-12-07T12:22:55;5.70;99.90
15113;DHT22;7657;50.140;7.076;2022-12-07T12:25:26;5.80;99.90
15113;DHT22;7657;50.140;7.076;2022-12-07T12:27:56;5.60;99.90
15113;DHT22;7657;50.140;7.076;2022-12-07T12:30:36;5.60;99.90
15113;DHT22;7657;50.140;7.076;2022-12-07T12:33:16;5.70;99.90
15113;DHT22;7657;50.140;7.076;2022-12-07T12:35:46;5.50;99.90
15113;DHT22;7657;50.140;7.076;2022-12-07T12:38:48;5.50;99.90
15113;DHT22;7657;50.140;7.076;2022-12-07T12:45:11;5.60;99.90
15113;DHT22;7657;50.140;7.076;2022-12-07T12:47:58;5.60;99.90
15113;DHT22;7657;50.140;7.076;2022-12-07T12:50:28;5.70;99.90
15113;DHT22;7657;50.140;7.076;2022-12-07T12:53:01;5.70;99.90
15113;DHT22;7657;50.140;7.076;2022-12-07T12:58:43;5.60;99.90
15113;DHT22;7657;50.140;7.076;2022-12-07T13:01:39;5.50;99.90
15113;DHT22;7657;50.140;7.076;2022-12-07T13:04:38;5.60;99.90
15113;DHT22;7657;50.140;7.076;2022-12-07T13:07:11;5.40;99.90
15113;DHT22;7657;50.140;7.076;2022-12-07T13:09:43;5.40;99.90
15113;DHT22;7657;50.140;7.076;2022-12-07T13:12:14;5.30;99.90
15113;DHT22;7657;50.140;7.076;2022-12-07T13:15:00;5.20;99.90
15113;DHT22;7657;50.140;7.076;2022-12-07T13:18:03;5.10;99.90
15113;DHT22;7657;50.140;7.076;2022-12-07T13:20:48;5.10;99.90
15113;DHT22;7657;50.140;7.076;2022-12-07T13:23:19;5.10;99.90
15113;DHT22;7657;50.140;7.076;2022-12-07T13:26:00;5.00;99.90
15113;DHT22;7657;50.140;7.076;2022-12-07T13:28:33;5.10;99.90
15113;DHT22;7657;50.140;7.076;2022-12-07T13:31:16;5.10;99.90
15113;DHT22;7657;50.140;7.076;2022-12-07T13:33:46;5.10;99.90
15113;DHT22;7657;50.140;7.076;2022-12-07T13:36:22;5.10;99.90
15113;DHT22;7657;50.140;7.076;2022-12-07T13:38:52;5.00;99.90
15113;DHT22;7657;50.140;7.076;2022-12-07T13:41:20;5.00;99.90
15113;DHT22;7657;50.140;7.076;2022-12-07T13:43:50;5.00;99.90
15113;DHT22;7657;50.140;7.076;2022-12-07T13:46:24;5.00;99.90
15113;DHT22;7657;50.140;7.076;2022-12-07T13:48:52;4.90;99.90
15113;DHT22;7657;50.140;7.076;2022-12-07T13:51:23;4.80;99.90
15113;DHT22;7657;50.140;7.076;2022-12-07T13:53:52;4.80;99.90
15113;DHT22;7657;50.140;7.076;2022-12-07T13:56:22;4.80;99.90
15113;DHT22;7657;50.140;7.076;2022-12-07T13:58:50;4.80;99.90
15113;DHT22;7657;50.140;7.076;2022-12-07T14:01:19;4.70;99.90
15113;DHT22;7657;50.140;7.076;2022-12-07T14:03:46;4.60;99.90
15113;DHT22;7657;50.140;7.076;2022-12-07T14:06:33;4.60;99.90
15113;DHT22;7657;50.140;7.076;2022-12-07T14:09:08;4.60;99.90
15113;DHT22;7657;50.140;7.076;2022-12-07T14:11:36;4.50;99.90
15113;DHT22;7657;50.140;7.076;2022-12-07T14:14:05;4.60;99.90
15113;DHT22;7657;50.140;7.076;2022-12-07T14:16:35;4.60;99.90
15113;DHT22;7657;50.140;7.076;2022-12-07T14:19:05;4.60;99.90
15113;DHT22;7657;50.140;7.076;2022-12-07T14:22:06;4.60;99.90
15113;DHT22;7657;50.140;7.076;2022-12-07T14:24:41;4.60;99.90
15113;DHT22;7657;50.140;7.076;2022-12-07T14:27:17;4.70;99.90
15113;DHT22;7657;50.140;7.076;2022-12-07T14:29:45;4.70;99.90
15113;DHT22;7657;50.140;7.076;2022-12-07T14:32:20;4.70;99.90
15113;DHT22;7657;50.140;7.076;2022-12-07T14:35:08;4.80;99.90
15113;DHT22;7657;50.140;7.076;2022-12-07T14:37:37;4.80;99.90
15113;DHT22;7657;50.140;7.076;2022-12-07T14:40:05;4.80;99.90
15113;DHT22;7657;50.140;7.076;2022-12-07T14:42:33;4.70;99.90
15113;DHT22;7657;50.140;7.076;2022-12-07T14:45:00;4.70;99.90
15113;DHT22;7657;50.140;7.076;2022-12-07T14:47:29;4.70;99.90
15113;DHT22;7657;50.140;7.076;2022-12-07T14:49:56;4.60;99.90
15113;DHT22;7657;50.140;7.076;2022-12-07T14:52:26;4.60;99.90
15113;DHT22;7657;50.140;7.076;2022-12-07T14:54:53;4.60;99.90
15113;DHT22;7657;50.140;7.076;2022-12-07T14:57:20;4.50;99.90
15113;DHT22;7657;50.140;7.076;2022-12-07T14:59:47;4.60;99.90
15113;DHT22;7657;50.140;7.076;2022-12-07T15:02:15;4.60;99.90
15113;DHT22;7657;50.140;7.076;2022-12-07T15:04:43;4.60;99.90
15113;DHT22;7657;50.140;7.076;2022-12-07T15:07:17;4.50;99.90
15113;DHT22;7657;50.140;7.076;2022-12-07T15:09:45;4.60;99.90
15113;DHT22;7657;50.140;7.076;2022-12-07T15:12:12;4.60;99.90
15113;DHT22;7657;50.140;7.076;2022-12-07T15:14:39;4.60;99.90
15113;DHT22;7657;50.140;7.076;2022-12-07T15:17:05;4.60;99.90
15113;DHT22;7657;50.140;7.076;2022-12-07T15:19:32;4.60;99.90
15113;DHT22;7657;50.140;7.076;2022-12-07T15:22:00;4.60;99.90
15113;DHT22;7657;50.140;7.076;2022-12-07T15:24:27;4.60;99.90
15113;DHT22;7657;50.140;7.076;2022-12-07T15:26:54;4.70;99.90
15113;DHT22;7657;50.140;7.076;2022-12-07T15:29:22;4.70;99.90
15113;DHT22;7657;50.140;7.076;2022-12-07T15:31:49;4.70;99.90
15113;DHT22;7657;50.140;7.076;2022-12-07T15:34:16;4.70;99.90
15113;DHT22;7657;50.140;7.076;2022-12-07T15:36:43;4.70;99.90
15113;DHT22;7657;50.140;7.076;2022-12-07T15:39:11;4.70;99.90
15113;DHT22;7657;50.140;7.076;2022-12-07T15:41:38;4.60;99.90
15113;DHT22;7657;50.140;7.076;2022-12-07T15:44:05;4.60;99.90
15113;DHT22;7657;50.140;7.076;2022-12-07T15:46:50;4.60;99.90
15113;DHT22;7657;50.140;7.076;2022-12-07T15:49:18;4.60;99.90
15113;DHT22;7657;50.140;7.076;2022-12-07T15:51:45;4.50;99.90
15113;DHT22;7657;50.140;7.076;2022-12-07T15:54:17;4.60;99.90
15113;DHT22;7657;50.140;7.076;2022-12-07T15:56:45;4.60;99.90
15113;DHT22;7657;50.140;7.076;2022-12-07T15:59:12;4.70;99.90
15113;DHT22;7657;50.140;7.076;2022-12-07T16:01:39;4.60;99.90
15113;DHT22;7657;50.140;7.076;2022-12-07T16:04:06;4.50;99.90
15113;DHT22;7657;50.140;7.076;2022-12-07T16:06:33;4.50;99.90
15113;DHT22;7657;50.140;7.076;2022-12-07T16:09:00;4.50;99.90
15113;DHT22;7657;50.140;7.076;2022-12-07T16:11:28;4.40;99.90
15113;DHT22;7657;50.140;7.076;2022-12-07T16:13:55;4.40;99.90
15113;DHT22;7657;50.140;7.076;2022-12-07T16:16:22;4.50;99.90
15113;DHT22;7657;50.140;7.076;2022-12-07T16:18:50;4.50;99.90
15113;DHT22;7657;50.140;7.076;2022-12-07T16:21:18;4.50;99.90
15113;DHT22;7657;50.140;7.076;2022-12-07T16:23:45;4.50;99.90
15113;DHT22;7657;50.140;7.076;2022-12-07T16:26:13;4.40;99.90
15113;DHT22;7657;50.140;7.076;2022-12-07T16:28:42;4.40;99.90
15113;DHT22;7657;50.140;7.076;2022-12-07T16:31:11;4.30;99.90
15113;DHT22;7657;50.140;7.076;2022-12-07T16:33:40;4.20;99.90